Terminal Aerodrome Forecast
Issued by NWS

Home | Current Version | Previous Version | Graphics & Text | Print | Product List | Glossary On
Versions: 1 2 3 4 5 6 7 8 9 10 11 12 13 14 15 16
088
FTUS43 KICT 252320
TAFCNU
TAF
KCNU 252320Z 2600/2624 16010KT P6SM SCT025 BKN035
     FM260300 16009KT P6SM SCT040 BKN200
     FM260800 17009KT P6SM BKN015
     FM261100 17009KT P6SM BKN008
     FM261600 17012KT P6SM BKN020
     FM261900 17016G23KT P6SM SCT030=

USA.gov is the U.S. government's official web portal to all federal, state and local government web resources and services.